Time;durP1;ratioP1;P1;durP2;ratioP2;P2;SDS_P1;SDS_P2;PMS_P1;PMS_P2;Temp;Humidity;BMP_temperature;BMP_pressure;BME280_temperature;BME280_humidity;BME280_pressure;Samples;Min_cycle;Max_cycle;Signal;HPM_P1;HPM_P2
2022/07/03 00:01:00;;;;;;;;;;;;;;;19.60;63.07;100718.22;6131761;23;1276;-96
2022/07/03 00:03:27;;;;;;;;;;;;;;;19.60;63.03;100720.97;6130792;23;1220;-96
2022/07/03 00:05:54;;;;;;;;;;;;;;;19.60;63.21;100714.69;6132263;23;1343;-96
2022/07/03 00:08:20;;;;;;;;;;;;;;;19.58;62.91;100720.41;6128630;23;1193;-96
2022/07/03 00:10:47;;;;;;;;;;;;;;;19.58;62.93;100717.69;6129816;23;1311;-96
2022/07/03 00:13:13;;;;;;;;;;;;;;;19.58;63.04;100714.13;6129745;23;1913;-96
2022/07/03 00:15:40;;;;;;;;;;;;;;;19.55;63.05;100706.50;6128157;23;1434;-96
2022/07/03 00:18:14;;;;;;;;;;;;;;;19.54;63.07;100702.94;6130742;23;1218;-96
2022/07/03 00:20:44;;;;;;;;;;;;;;;19.54;62.98;100704.88;6131114;23;1185;-96
2022/07/03 00:23:11;;;;;;;;;;;;;;;19.53;62.98;100704.06;6128078;23;1369;-96
2022/07/03 00:25:37;;;;;;;;;;;;;;;19.52;63.03;100703.22;6131176;23;1402;-96
2022/07/03 00:28:04;;;;;;;;;;;;;;;19.51;63.11;100693.38;6131576;23;1197;-96
2022/07/03 00:30:30;;;;;;;;;;;;;;;19.52;62.92;100702.41;6135168;23;1331;-96
2022/07/03 00:32:58;;;;;;;;;;;;;;;19.52;63.33;100714.13;6136811;23;1893;-96
2022/07/03 00:35:25;;;;;;;;;;;;;;;19.51;62.97;100706.22;6132952;23;1331;-96
2022/07/03 00:37:51;;;;;;;;;;;;;;;19.50;62.99;100696.38;6131780;23;1270;-96
2022/07/03 00:40:19;;;;;;;;;;;;;;;19.49;63.30;100698.31;6135115;23;1602;-96
2022/07/03 00:42:46;;;;;;;;;;;;;;;19.49;62.86;100694.75;6130988;23;1193;-96
2022/07/03 00:45:13;;;;;;;;;;;;;;;19.47;62.94;100697.78;6135530;23;1270;-96
2022/07/03 00:47:41;;;;;;;;;;;;;;;19.47;63.18;100702.41;6131106;23;1296;-96
2022/07/03 00:50:13;;;;;;;;;;;;;;;19.45;63.09;100699.13;6158305;23;1279;-96
2022/07/03 00:52:40;;;;;;;;;;;;;;;19.45;62.95;100696.41;6129802;23;1973;-96
2022/07/03 00:55:07;;;;;;;;;;;;;;;19.44;62.84;100695.59;6129623;23;1282;-96
2022/07/03 00:57:33;;;;;;;;;;;;;;;19.43;63.27;100687.66;6130276;23;1136;-96
2022/07/03 01:00:00;;;;;;;;;;;;;;;19.42;62.99;100686.84;6130564;23;1264;-96
2022/07/03 01:02:27;;;;;;;;;;;;;;;19.41;63.00;100687.13;6154829;23;1280;-96
2022/07/03 01:04:54;;;;;;;;;;;;;;;19.40;63.02;100674.56;6130267;23;1203;-96
2022/07/03 01:07:20;;;;;;;;;;;;;;;19.40;62.98;100686.31;6130869;23;1253;-95
2022/07/03 01:09:47;;;;;;;;;;;;;;;19.40;63.20;100685.50;6132980;23;1217;-96
2022/07/03 01:12:13;;;;;;;;;;;;;;;19.38;63.13;100677.56;6130541;23;1909;-96
2022/07/03 01:14:40;;;;;;;;;;;;;;;19.39;63.03;100686.59;6132232;23;1260;-96
2022/07/03 01:17:13;;;;;;;;;;;;;;;19.36;63.21;100681.69;6134974;23;1302;-96
2022/07/03 01:19:41;;;;;;;;;;;;;;;19.37;63.34;100694.22;6134074;23;1371;-96
2022/07/03 01:22:08;;;;;;;;;;;;;;;19.35;62.84;100689.03;6128831;23;1201;-96
2022/07/03 01:24:35;;;;;;;;;;;;;;;19.34;63.07;100683.84;6128686;23;1448;-96
2022/07/03 01:27:02;;;;;;;;;;;;;;;19.34;63.20;100686.59;6132353;23;1471;-96
2022/07/03 01:29:29;;;;;;;;;;;;;;;19.33;63.13;100676.78;6133995;23;1189;-96
2022/07/03 01:31:55;;;;;;;;;;;;;;;19.32;62.95;100686.84;6135610;23;1874;-96
2022/07/03 01:34:22;;;;;;;;;;;;;;;19.31;62.82;100679.75;6131883;23;1175;-96
2022/07/03 01:36:49;;;;;;;;;;;;;;;19.30;63.19;100678.13;6133132;23;1273;-96
2022/07/03 01:39:15;;;;;;;;;;;;;;;19.29;63.32;100681.94;6133531;23;1219;-96
2022/07/03 01:41:42;;;;;;;;;;;;;;;19.28;62.91;100688.50;6129803;23;1472;-96
2022/07/03 01:44:08;;;;;;;;;;;;;;;19.28;63.22;100681.13;6138669;23;1280;-96
2022/07/03 01:46:35;;;;;;;;;;;;;;;19.26;63.05;100686.03;6129750;23;1192;-96
2022/07/03 01:49:02;;;;;;;;;;;;;;;19.26;62.89;100685.22;6131618;23;1210;-96
2022/07/03 01:51:28;;;;;;;;;;;;;;;19.25;63.25;100680.88;6129817;23;1551;-96
2022/07/03 01:53:55;;;;;;;;;;;;;;;19.24;63.35;100693.69;6131787;23;1942;-96
2022/07/03 01:56:22;;;;;;;;;;;;;;;19.22;63.26;100682.22;6133283;23;1418;-96
2022/07/03 01:58:50;;;;;;;;;;;;;;;19.22;63.09;100693.16;6130784;23;1196;-96
2022/07/03 02:01:17;;;;;;;;;;;;;;;19.21;63.25;100691.53;6134727;23;1195;-96
2022/07/03 02:03:44;;;;;;;;;;;;;;;19.20;63.25;100689.84;6132713;23;1315;-96
2022/07/03 02:06:11;;;;;;;;;;;;;;;19.21;63.01;100682.50;6130843;23;1156;-96
2022/07/03 02:08:37;;;;;;;;;;;;;;;19.20;63.18;100678.13;6132711;23;1176;-96
2022/07/03 02:11:04;;;;;;;;;;;;;;;19.19;63.11;100685.50;6129577;23;1194;-96
2022/07/03 02:13:31;;;;;;;;;;;;;;;19.17;63.07;100687.69;6130212;23;1938;-96
2022/07/03 02:15:57;;;;;;;;;;;;;;;19.18;62.69;100683.88;6130773;23;1218;-96
2022/07/03 02:18:24;;;;;;;;;;;;;;;19.17;62.97;100684.94;6130816;23;1267;-96
2022/07/03 02:20:50;;;;;;;;;;;;;;;19.18;63.20;100677.59;6129682;23;1319;-96
2022/07/03 02:23:17;;;;;;;;;;;;;;;19.17;62.91;100689.59;6132502;23;1333;-96
2022/07/03 02:25:43;;;;;;;;;;;;;;;19.16;63.00;100686.06;6128672;23;1250;-96
2022/07/03 02:28:10;;;;;;;;;;;;;;;19.15;63.11;100678.97;6128245;23;1188;-96
2022/07/03 02:30:37;;;;;;;;;;;;;;;19.14;63.33;100684.69;6128234;23;1236;-96
2022/07/03 02:33:03;;;;;;;;;;;;;;;19.12;63.12;100679.50;6128507;23;1951;-96
2022/07/03 02:35:30;;;;;;;;;;;;;;;19.12;63.14;100689.59;6128469;23;1157;-96
2022/07/03 02:37:59;;;;;;;;;;;;;;;19.12;63.21;100686.84;6128493;23;1305;-96
2022/07/03 02:40:25;;;;;;;;;;;;;;;19.11;63.12;100685.22;6128750;23;1539;-96
2022/07/03 02:42:52;;;;;;;;;;;;;;;19.10;63.21;100676.22;6127562;23;1441;-96
2022/07/03 02:45:19;;;;;;;;;;;;;;;19.10;63.16;100675.41;6128374;23;1275;-96
2022/07/03 02:47:45;;;;;;;;;;;;;;;19.09;63.07;100677.34;6128074;23;1394;-96
2022/07/03 02:50:12;;;;;;;;;;;;;;;19.09;63.24;100673.75;6128219;23;1330;-96
2022/07/03 02:52:40;;;;;;;;;;;;;;;19.08;63.06;100680.31;6127521;23;1909;-96
2022/07/03 02:55:07;;;;;;;;;;;;;;;19.08;62.82;100677.59;6126976;23;1169;-96
2022/07/03 02:57:33;;;;;;;;;;;;;;;19.07;63.25;100671.31;6127394;23;1200;-96
2022/07/03 03:00:00;;;;;;;;;;;;;;;19.05;63.06;100665.31;6127358;23;1559;-96
2022/07/03 03:02:26;;;;;;;;;;;;;;;19.04;63.17;100675.41;6128155;23;1275;-96
2022/07/03 03:04:53;;;;;;;;;;;;;;;19.04;63.09;100672.69;6128485;23;1447;-96
2022/07/03 03:07:20;;;;;;;;;;;;;;;19.04;63.05;100666.41;6127712;23;1219;-96
2022/07/03 03:09:46;;;;;;;;;;;;;;;19.02;63.08;100674.84;6127030;23;1257;-96
2022/07/03 03:12:13;;;;;;;;;;;;;;;19.01;63.11;100670.50;6127111;23;1925;-96
2022/07/03 03:14:39;;;;;;;;;;;;;;;19.02;62.98;100665.84;6128180;23;1324;-96
2022/07/03 03:17:06;;;;;;;;;;;;;;;19.00;62.66;100666.16;6128211;23;1272;-96
2022/07/03 03:19:33;;;;;;;;;;;;;;;19.01;63.04;100667.78;6127954;23;1231;-96
2022/07/03 03:22:00;;;;;;;;;;;;;;;19.00;63.06;100668.88;6127138;23;1156;-96
2022/07/03 03:24:27;;;;;;;;;;;;;;;18.99;62.99;100664.47;6127386;23;1379;-96
2022/07/03 03:26:54;;;;;;;;;;;;;;;18.97;62.96;100666.69;6152487;23;1172;-96
2022/07/03 03:29:21;;;;;;;;;;;;;;;18.98;62.86;100672.97;6127559;23;1216;-96
2022/07/03 03:31:47;;;;;;;;;;;;;;;18.98;62.99;100664.78;6151803;23;1282;-96
2022/07/03 03:34:14;;;;;;;;;;;;;;;18.97;62.88;100663.13;6127087;23;1900;-96
2022/07/03 03:36:41;;;;;;;;;;;;;;;18.95;62.98;100663.41;6126381;23;1165;-96
2022/07/03 03:39:07;;;;;;;;;;;;;;;18.95;62.80;100668.06;6127422;23;1257;-96
2022/07/03 03:41:34;;;;;;;;;;;;;;;18.95;62.68;100671.59;6127344;23;1292;-95
2022/07/03 03:44:00;;;;;;;;;;;;;;;18.94;63.07;100669.97;6127527;23;1191;-96
2022/07/03 03:46:27;;;;;;;;;;;;;;;18.93;62.78;100664.75;6127003;23;1178;-95
2022/07/03 03:48:54;;;;;;;;;;;;;;;18.92;62.93;100666.69;6126902;23;1170;-96
2022/07/03 03:51:20;;;;;;;;;;;;;;;18.93;62.70;100667.50;6126879;23;1187;-96
2022/07/03 03:53:47;;;;;;;;;;;;;;;18.93;62.77;100664.75;6127132;23;1950;-96
2022/07/03 03:56:14;;;;;;;;;;;;;;;18.91;62.74;100667.75;6128132;23;1317;-96
2022/07/03 03:58:43;;;;;;;;;;;;;;;18.91;62.75;100667.75;6128314;23;1312;-96
2022/07/03 04:01:10;;;;;;;;;;;;;;;18.90;62.97;100657.94;6126705;23;1441;-96
2022/07/03 04:03:36;;;;;;;;;;;;;;;18.89;62.66;100663.69;6127734;23;1315;-96
2022/07/03 04:06:03;;;;;;;;;;;;;;;18.90;62.90;100654.41;6128823;23;1322;-96
2022/07/03 04:08:29;;;;;;;;;;;;;;;18.88;62.97;100668.28;6127785;23;1284;-96
2022/07/03 04:10:56;;;;;;;;;;;;;;;18.88;62.89;100667.47;6127623;23;1224;-96
2022/07/03 04:13:23;;;;;;;;;;;;;;;18.87;62.61;100666.66;6127144;23;1912;-96
2022/07/03 04:15:50;;;;;;;;;;;;;;;18.87;62.55;100668.59;6127537;23;1186;-95
2022/07/03 04:18:17;;;;;;;;;;;;;;;18.87;62.66;100685.78;6128011;23;1173;-96
2022/07/03 04:20:43;;;;;;;;;;;;;;;18.85;62.58;100660.66;6128737;23;1287;-96
2022/07/03 04:23:10;;;;;;;;;;;;;;;18.84;62.82;100665.31;6130581;23;1268;-96
2022/07/03 04:25:36;;;;;;;;;;;;;;;18.85;62.88;100666.13;6126899;23;1344;-96
2022/07/03 04:28:03;;;;;;;;;;;;;;;18.83;62.94;100665.59;6127033;23;1173;-96
2022/07/03 04:30:29;;;;;;;;;;;;;;;18.84;62.88;100661.75;6126809;23;1384;-96
2022/07/03 04:32:56;;;;;;;;;;;;;;;18.82;62.69;100662.03;6127119;23;1909;-96
2022/07/03 04:35:22;;;;;;;;;;;;;;;18.81;62.87;100662.31;6123568;23;1181;-96
2022/07/03 04:37:49;;;;;;;;;;;;;;;18.80;62.73;100666.94;6126760;23;1157;-96
2022/07/03 04:40:16;;;;;;;;;;;;;;;18.80;62.72;100661.50;6128352;23;1284;-96
2022/07/03 04:42:42;;;;;;;;;;;;;;;18.79;62.92;100654.38;6128176;23;1182;-96
2022/07/03 04:45:09;;;;;;;;;;;;;;;18.80;62.64;100656.03;6129567;23;1263;-96
2022/07/03 04:47:35;;;;;;;;;;;;;;;18.79;62.61;100665.28;6128647;23;1348;-96
2022/07/03 04:50:02;;;;;;;;;;;;;;;18.79;62.66;100664.47;6126980;23;1176;-96
2022/07/03 04:52:29;;;;;;;;;;;;;;;18.78;62.83;100669.13;6130493;23;1952;-96
2022/07/03 04:54:55;;;;;;;;;;;;;;;18.77;62.67;100664.75;6127041;23;1279;-95
2022/07/03 04:57:22;;;;;;;;;;;;;;;18.76;62.97;100654.09;6126729;23;1282;-96
2022/07/03 04:59:48;;;;;;;;;;;;;;;18.75;62.50;100661.47;6127696;23;1144;-96
2022/07/03 05:02:15;;;;;;;;;;;;;;;18.75;62.47;100666.13;6127399;23;1324;-96
2022/07/03 05:04:42;;;;;;;;;;;;;;;18.74;62.67;100656.31;6127510;23;1209;-96
2022/07/03 05:07:08;;;;;;;;;;;;;;;18.74;62.70;100659.03;6128433;23;1279;-95
2022/07/03 05:09:35;;;;;;;;;;;;;;;18.74;62.54;100672.69;6129769;23;1366;-95
2022/07/03 05:12:01;;;;;;;;;;;;;;;18.74;62.85;100667.22;6129041;23;1291;-96
2022/07/03 05:14:28;;;;;;;;;;;;;;;18.73;62.61;100669.09;6128711;23;1905;-95
2022/07/03 05:16:55;;;;;;;;;;;;;;;18.73;62.63;100679.16;6128806;23;1400;-95
2022/07/03 05:19:21;;;;;;;;;;;;;;;18.72;62.66;100696.63;6103870;23;1226;-96
2022/07/03 05:21:48;;;;;;;;;;;;;;;18.72;62.61;100702.09;6127684;23;1191;-95
2022/07/03 05:24:14;;;;;;;;;;;;;;;18.70;62.60;100691.44;6134184;23;1304;-95
2022/07/03 05:26:41;;;;;;;;;;;;;;;18.69;62.68;100692.53;6129547;23;1360;-96
2022/07/03 05:29:07;;;;;;;;;;;;;;;18.69;62.78;100683.53;6129358;23;970;-95
2022/07/03 05:31:34;;;;;;;;;;;;;;;18.68;62.53;100682.72;6129386;23;1213;-96
2022/07/03 05:34:00;;;;;;;;;;;;;;;18.66;62.67;100687.63;6127297;23;1952;-96
2022/07/03 05:36:27;;;;;;;;;;;;;;;18.67;62.59;100685.72;6128224;23;1266;-96
2022/07/03 05:41:38;;;;;;;;;;;;;;;18.64;62.85;100667.16;6128793;23;1204;-96
2022/07/03 05:44:04;;;;;;;;;;;;;;;18.64;62.67;100667.16;6128518;23;1280;-95
2022/07/03 05:46:31;;;;;;;;;;;;;;;18.63;62.47;100673.72;6129540;23;981;-94
2022/07/03 05:48:57;;;;;;;;;;;;;;;18.62;62.72;100675.63;6125608;23;1348;-95
2022/07/03 05:51:24;;;;;;;;;;;;;;;18.62;62.68;100675.63;6126582;23;1241;-95
2022/07/03 05:53:50;;;;;;;;;;;;;;;18.62;62.71;100672.91;6103075;23;1897;-95
2022/07/03 05:56:17;;;;;;;;;;;;;;;18.60;62.67;100684.06;6128330;23;1275;-96
2022/07/03 05:58:44;;;;;;;;;;;;;;;18.59;62.87;100689.81;6128022;23;1141;-96
2022/07/03 06:01:10;;;;;;;;;;;;;;;18.59;62.58;100681.63;6127628;23;1214;-95
2022/07/03 06:03:37;;;;;;;;;;;;;;;18.59;62.56;100681.63;6127777;23;1274;-95
2022/07/03 06:06:04;;;;;;;;;;;;;;;18.57;62.95;100689.25;6126917;23;1315;-95
2022/07/03 06:08:30;;;;;;;;;;;;;;;18.56;62.90;100682.13;6126886;23;1323;-95
2022/07/03 06:10:57;;;;;;;;;;;;;;;18.56;62.62;100682.97;6128977;23;1251;-95
2022/07/03 06:13:23;;;;;;;;;;;;;;;18.55;62.83;100678.59;6127838;23;1948;-96
2022/07/03 06:15:50;;;;;;;;;;;;;;;18.54;62.73;100668.78;6127260;23;1299;-96
2022/07/03 06:18:16;;;;;;;;;;;;;;;18.54;62.72;100670.69;6128436;23;1297;-96
2022/07/03 06:20:43;;;;;;;;;;;;;;;18.53;62.78;100667.16;6128096;23;1361;-96
2022/07/03 06:23:10;;;;;;;;;;;;;;;18.53;62.73;100679.94;6126855;23;1387;-96
2022/07/03 06:25:36;;;;;;;;;;;;;;;18.53;62.70;100679.94;6125142;23;1321;-94
2022/07/03 06:28:03;;;;;;;;;;;;;;;18.53;62.56;100690.84;6127200;23;1166;-93
2022/07/03 06:30:29;;;;;;;;;;;;;;;18.52;62.60;100698.22;6103469;23;1322;-94
2022/07/03 06:32:56;;;;;;;;;;;;;;;18.50;62.57;100686.78;6127088;23;1905;-94
2022/07/03 06:35:25;;;;;;;;;;;;;;;18.49;62.62;100687.03;6127598;23;1464;-96
2022/07/03 06:37:51;;;;;;;;;;;;;;;18.49;62.62;100684.31;6129621;23;890;-95
2022/07/03 06:40:18;;;;;;;;;;;;;;;18.49;62.91;100679.66;6128576;23;1180;-94
2022/07/03 06:42:45;;;;;;;;;;;;;;;18.46;62.64;100691.13;6129385;23;1275;-96
2022/07/03 06:45:11;;;;;;;;;;;;;;;18.47;62.71;100690.06;6127989;23;1390;-96
2022/07/03 06:47:38;;;;;;;;;;;;;;;18.47;62.60;100700.13;6127485;23;1267;-95
2022/07/03 06:50:04;;;;;;;;;;;;;;;18.46;62.56;100693.03;6128144;23;1267;-95
2022/07/03 06:52:31;;;;;;;;;;;;;;;18.47;62.77;100694.66;6127451;23;1287;-96
2022/07/03 06:54:57;;;;;;;;;;;;;;;18.45;62.51;100694.94;6126675;23;2002;-96
2022/07/03 06:57:24;;;;;;;;;;;;;;;18.45;62.59;100702.31;6127556;23;1290;-96
2022/07/03 06:59:50;;;;;;;;;;;;;;;18.44;62.57;100706.09;6127921;23;1289;-96
2022/07/03 07:02:17;;;;;;;;;;;;;;;18.45;62.42;100715.94;6127254;23;1230;-96
2022/07/03 07:04:44;;;;;;;;;;;;;;;18.43;62.52;100718.94;6129485;23;1407;-96
2022/07/03 07:07:10;;;;;;;;;;;;;;;18.42;62.47;100738.31;6127932;23;1163;-96
2022/07/03 07:09:37;;;;;;;;;;;;;;;18.42;62.37;100739.13;6127775;23;1395;-95
2022/07/03 07:12:03;;;;;;;;;;;;;;;18.42;62.41;100732.84;6128548;23;1394;-96
2022/07/03 07:14:30;;;;;;;;;;;;;;;18.41;62.79;100737.44;6128841;23;1905;-96
2022/07/03 07:16:56;;;;;;;;;;;;;;;18.40;62.49;100744.00;6127733;23;1407;-95
2022/07/03 07:19:23;;;;;;;;;;;;;;;18.41;62.87;100739.38;6127208;23;1306;-96
2022/07/03 07:21:50;;;;;;;;;;;;;;;18.39;62.52;100739.66;6127450;23;1227;-95
2022/07/03 07:24:16;;;;;;;;;;;;;;;18.38;62.74;100735.25;6126145;23;1275;-94
2022/07/03 07:26:43;;;;;;;;;;;;;;;18.36;62.74;100727.38;6127019;23;1223;-95
2022/07/03 07:29:09;;;;;;;;;;;;;;;18.35;62.51;100722.16;6126666;23;1165;-95
2022/07/03 07:31:36;;;;;;;;;;;;;;;18.34;62.55;100715.09;6127202;23;1415;-94
2022/07/03 07:34:04;;;;;;;;;;;;;;;18.34;62.77;100724.06;6127160;23;1901;-93
2022/07/03 07:36:30;;;;;;;;;;;;;;;18.34;62.60;100721.34;6126302;23;1183;-94
2022/07/03 07:38:57;;;;;;;;;;;;;;;18.32;62.48;100729.00;6127815;23;1303;-94
2022/07/03 07:41:23;;;;;;;;;;;;;;;18.32;62.49;100726.28;6129150;23;1191;-96
2022/07/03 07:43:50;;;;;;;;;;;;;;;18.33;62.59;100730.63;6128062;23;1258;-95
2022/07/03 07:46:16;;;;;;;;;;;;;;;18.33;62.70;100724.34;6127544;23;1314;-94
2022/07/03 07:48:44;;;;;;;;;;;;;;;18.31;62.64;100724.63;6127186;23;1169;-94
2022/07/03 07:51:11;;;;;;;;;;;;;;;18.31;62.44;100719.16;6126959;23;1267;-95
2022/07/03 07:53:38;;;;;;;;;;;;;;;18.30;62.46;100724.91;6125361;23;1897;-95
2022/07/03 07:56:04;;;;;;;;;;;;;;;18.30;62.76;100724.91;6127789;23;1346;-94
2022/07/03 07:58:31;;;;;;;;;;;;;;;18.30;62.76;100722.16;6101392;23;1318;-94
2022/07/03 08:06:26;;;;;;;;;;;;;;;18.26;62.52;100716.41;6125476;23;1309;-94
2022/07/03 08:08:53;;;;;;;;;;;;;;;18.26;62.69;100718.31;6127646;23;1194;-93
2022/07/03 08:11:19;;;;;;;;;;;;;;;18.26;62.73;100710.13;6126334;23;1392;-94
2022/07/03 08:13:46;;;;;;;;;;;;;;;18.26;62.68;100716.41;6126029;23;1900;-94
2022/07/03 08:16:12;;;;;;;;;;;;;;;18.26;62.71;100708.22;6125885;23;1191;-94
2022/07/03 08:18:39;;;;;;;;;;;;;;;18.26;62.30;100702.78;6126716;23;1161;-93
2022/07/03 08:21:05;;;;;;;;;;;;;;;18.25;62.43;100708.50;6126534;23;1323;-93
2022/07/03 08:23:32;;;;;;;;;;;;;;;18.24;62.67;100707.69;6125506;23;1014;-94
2022/07/03 08:25:58;;;;;;;;;;;;;;;18.22;62.43;100709.84;6126339;23;1308;-94
2022/07/03 08:28:25;;;;;;;;;;;;;;;18.24;62.70;100706.88;6125949;23;1243;-94
2022/07/03 08:30:52;;;;;;;;;;;;;;;18.21;62.60;100697.31;6101588;23;1170;-94
2022/07/03 08:33:19;;;;;;;;;;;;;;;18.21;62.49;100691.06;6125173;23;1205;-94
2022/07/03 08:35:45;;;;;;;;;;;;;;;18.20;62.49;100690.22;6127748;23;1905;-96
2022/07/03 08:38:12;;;;;;;;;;;;;;;18.21;62.78;100688.34;6128295;23;1336;-96
2022/07/03 08:40:38;;;;;;;;;;;;;;;18.20;62.45;100687.50;6132738;23;1270;-95
2022/07/03 08:43:05;;;;;;;;;;;;;;;18.20;62.45;100695.66;6128737;23;1129;-96
2022/07/03 08:45:31;;;;;;;;;;;;;;;18.20;62.76;100689.41;6129716;23;1202;-95
2022/07/03 08:47:58;;;;;;;;;;;;;;;18.21;62.68;100699.25;6129197;23;1188;-96
2022/07/03 08:50:24;;;;;;;;;;;;;;;18.20;62.62;100697.59;6126425;23;1188;-96
2022/07/03 08:52:51;;;;;;;;;;;;;;;18.05;67.91;100698.34;6128114;23;1188;-96
2022/07/03 08:55:17;;;;;;;;;;;;;;;17.78;70.33;100693.03;6127671;23;1897;-95
2022/07/03 08:57:44;;;;;;;;;;;;;;;17.98;67.53;100693.13;6127122;23;1137;-96
2022/07/03 09:00:10;;;;;;;;;;;;;;;18.10;65.90;100698.38;6128062;23;1293;-96
2022/07/03 09:02:38;;;;;;;;;;;;;;;18.15;65.56;100710.13;6130470;23;1252;-96
2022/07/03 09:05:05;;;;;;;;;;;;;;;18.17;65.36;100701.66;6127020;23;1134;-95
2022/07/03 09:07:31;;;;;;;;;;;;;;;18.19;65.06;100694.03;6127040;23;1261;-96
2022/07/03 09:09:58;;;;;;;;;;;;;;;18.21;64.57;100700.06;6127637;23;1401;-95
2022/07/03 09:12:24;;;;;;;;;;;;;;;18.22;64.46;100698.13;6126698;23;1191;-95
2022/07/03 09:14:50;;;;;;;;;;;;;;;18.21;64.47;100696.50;6126244;23;1909;-95
2022/07/03 09:17:17;;;;;;;;;;;;;;;18.21;64.10;100694.59;6127681;23;1318;-93
2022/07/03 09:19:44;;;;;;;;;;;;;;;18.22;64.08;100695.41;6124318;23;1264;-91
2022/07/03 09:22:11;;;;;;;;;;;;;;;18.23;64.06;100697.03;6126996;23;1168;-91
2022/07/03 09:24:37;;;;;;;;;;;;;;;18.22;64.05;100689.97;6126879;23;1327;-93
2022/07/03 09:27:04;;;;;;;;;;;;;;;18.23;63.95;100688.88;6127869;23;1309;-93
2022/07/03 09:29:30;;;;;;;;;;;;;;;18.24;63.78;100696.78;6128421;23;1053;-93
2022/07/03 09:31:57;;;;;;;;;;;;;;;18.23;63.59;100686.97;6125683;23;1306;-93
2022/07/03 09:34:24;;;;;;;;;;;;;;;18.23;63.53;100692.41;6125632;23;1905;-92
2022/07/03 09:36:51;;;;;;;;;;;;;;;18.22;63.50;100684.50;6127119;23;1248;-93
2022/07/03 09:39:18;;;;;;;;;;;;;;;18.23;63.64;100689.69;6128386;23;879;-94
2022/07/03 09:41:45;;;;;;;;;;;;;;;18.25;63.46;100694.88;6127382;23;1216;-94
2022/07/03 09:44:11;;;;;;;;;;;;;;;18.24;63.27;100690.53;6127097;23;1177;-95
2022/07/03 09:46:38;;;;;;;;;;;;;;;18.25;63.18;100706.59;6126916;23;1359;-94
2022/07/03 09:49:04;;;;;;;;;;;;;;;18.25;63.49;100705.78;6126830;23;1243;-94
2022/07/03 09:51:31;;;;;;;;;;;;;;;18.25;63.24;100694.88;6127672;23;1196;-95
2022/07/03 09:53:57;;;;;;;;;;;;;;;18.25;63.36;100700.34;6128837;23;1897;-95
2022/07/03 09:56:24;;;;;;;;;;;;;;;18.25;63.13;100697.59;6128838;23;1147;-96
2022/07/03 09:58:50;;;;;;;;;;;;;;;18.27;63.12;100690.00;6128690;23;1141;-93
2022/07/03 10:01:16;;;;;;;;;;;;;;;18.26;63.10;100686.41;6130040;23;868;-94
2022/07/03 10:03:43;;;;;;;;;;;;;;;18.27;63.17;100698.16;6128110;23;1305;-94
2022/07/03 10:06:09;;;;;;;;;;;;;;;18.28;63.17;100688.91;6128657;23;1157;-94
2022/07/03 10:08:35;;;;;;;;;;;;;;;18.26;63.20;100691.88;6128951;23;1287;-94
2022/07/03 10:11:02;;;;;;;;;;;;;;;18.27;63.12;100693.53;6129026;23;1179;-94
2022/07/03 10:13:28;;;;;;;;;;;;;;;18.27;63.01;100692.72;6128712;23;1311;-95
2022/07/03 10:15:56;;;;;;;;;;;;;;;18.25;63.06;100690.25;6128785;23;1922;-94
2022/07/03 10:18:22;;;;;;;;;;;;;;;18.25;63.01;100687.53;6128896;23;1300;-94
2022/07/03 10:20:49;;;;;;;;;;;;;;;18.25;62.78;100689.44;6128478;23;1179;-94
2022/07/03 10:23:15;;;;;;;;;;;;;;;18.24;63.11;100676.91;6128188;23;1137;-93
2022/07/03 10:25:42;;;;;;;;;;;;;;;18.25;62.84;100687.53;6129711;23;1395;-94
2022/07/03 10:28:08;;;;;;;;;;;;;;;18.25;63.07;100683.97;6128532;23;1244;-94
2022/07/03 10:30:35;;;;;;;;;;;;;;;18.23;63.12;100681.50;6128596;23;1165;-94
2022/07/03 10:33:01;;;;;;;;;;;;;;;18.24;63.11;100690.53;6128188;23;1182;-94
2022/07/03 10:35:28;;;;;;;;;;;;;;;18.24;63.17;100685.88;6128733;23;1901;-94
2022/07/03 10:37:54;;;;;;;;;;;;;;;18.23;62.89;100684.22;6128509;23;1300;-94
2022/07/03 10:45:48;;;;;;;;;;;;;;;18.20;63.10;100682.03;6128306;23;1357;-94
2022/07/03 10:48:15;;;;;;;;;;;;;;;18.19;63.05;100674.97;6128657;23;1310;-93
2022/07/03 10:50:41;;;;;;;;;;;;;;;18.21;63.15;100677.44;6128683;23;1179;-95
2022/07/03 10:53:08;;;;;;;;;;;;;;;18.21;62.85;100675.53;6127295;23;1337;-94
2022/07/03 10:55:34;;;;;;;;;;;;;;;18.20;62.85;100681.22;6128388;23;1909;-94
2022/07/03 10:58:00;;;;;;;;;;;;;;;18.20;62.95;100668.41;6128618;23;1228;-94
2022/07/03 11:00:27;;;;;;;;;;;;;;;18.20;62.97;100667.59;6128480;23;1313;-94
2022/07/03 11:02:53;;;;;;;;;;;;;;;18.21;63.05;100663.81;6127960;23;1136;-94
2022/07/03 11:05:20;;;;;;;;;;;;;;;18.21;63.02;100658.34;6128498;23;1218;-95
2022/07/03 11:07:46;;;;;;;;;;;;;;;18.22;62.76;100662.72;6128120;23;1458;-94
2022/07/03 11:10:13;;;;;;;;;;;;;;;18.21;62.87;100661.06;6127955;23;1233;-93
2022/07/03 11:12:40;;;;;;;;;;;;;;;18.21;63.03;100658.34;6128266;23;1184;-94
2022/07/03 11:15:06;;;;;;;;;;;;;;;18.22;63.05;100670.88;6127874;23;1936;-94
2022/07/03 11:17:32;;;;;;;;;;;;;;;18.22;63.07;100679.06;6127948;23;1283;-94
2022/07/03 11:22:43;;;;;;;;;;;;;;;18.23;62.99;100667.06;6128191;23;1293;-94
2022/07/03 11:25:09;;;;;;;;;;;;;;;18.24;62.99;100663.28;6128304;23;1217;-94
2022/07/03 11:27:35;;;;;;;;;;;;;;;18.21;62.69;100664.63;6129941;23;934;-94
2022/07/03 11:30:02;;;;;;;;;;;;;;;18.22;62.91;100663.53;6127791;23;1187;-95
2022/07/03 11:32:28;;;;;;;;;;;;;;;18.22;62.99;100674.44;6128189;23;1165;-95
2022/07/03 11:34:55;;;;;;;;;;;;;;;18.23;62.95;100664.34;6127459;23;1939;-94
2022/07/03 11:37:21;;;;;;;;;;;;;;;18.23;62.63;100667.88;6128438;23;1225;-94
2022/07/03 11:39:47;;;;;;;;;;;;;;;18.23;63.02;100664.34;6128041;23;1363;-95
2022/07/03 11:42:14;;;;;;;;;;;;;;;18.22;62.85;100670.88;6127755;23;1161;-95
2022/07/03 11:44:40;;;;;;;;;;;;;;;18.22;62.97;100662.72;6127870;23;1191;-94
2022/07/03 11:47:07;;;;;;;;;;;;;;;18.21;63.00;100661.06;6127688;23;1273;-94
2022/07/03 11:49:34;;;;;;;;;;;;;;;18.20;63.08;100656.69;6128125;23;1149;-94
2022/07/03 11:52:00;;;;;;;;;;;;;;;18.20;63.12;100664.88;6127869;23;1201;-95
2022/07/03 11:54:27;;;;;;;;;;;;;;;18.20;63.12;100668.41;6127464;23;1951;-94
2022/07/03 11:56:53;;;;;;;;;;;;;;;18.18;62.96;100665.16;6127958;23;1264;-94
2022/07/03 11:59:20;;;;;;;;;;;;;;;18.17;63.18;100663.50;6127557;23;1288;-94
2022/07/03 12:01:46;;;;;;;;;;;;;;;18.17;63.07;100653.41;6128059;23;1298;-94
2022/07/03 12:04:13;;;;;;;;;;;;;;;18.17;63.07;100658.84;6127302;23;1286;-94
2022/07/03 12:06:39;;;;;;;;;;;;;;;18.18;62.95;100654.25;6127424;23;1220;-94
2022/07/03 12:09:06;;;;;;;;;;;;;;;18.19;63.01;100649.63;6127316;23;1181;-94
2022/07/03 12:11:32;;;;;;;;;;;;;;;18.17;63.00;100639.78;6127560;23;1193;-94
2022/07/03 12:13:59;;;;;;;;;;;;;;;18.20;63.04;100640.34;6127514;23;1161;-94
2022/07/03 12:16:26;;;;;;;;;;;;;;;18.19;63.00;100638.72;6127941;23;1909;-94
2022/07/03 12:18:53;;;;;;;;;;;;;;;18.17;62.82;100630.78;6127267;23;1110;-94
2022/07/03 12:21:20;;;;;;;;;;;;;;;18.17;62.96;100633.50;6127507;23;1214;-94
2022/07/03 12:23:46;;;;;;;;;;;;;;;18.19;62.94;100647.69;6127404;23;1196;-94
2022/07/03 12:26:13;;;;;;;;;;;;;;;18.18;63.01;100643.34;6127359;23;1186;-94
2022/07/03 12:28:39;;;;;;;;;;;;;;;18.17;62.82;100637.06;6127804;23;1429;-94
2022/07/03 12:31:05;;;;;;;;;;;;;;;18.19;62.93;100641.44;6127474;23;1177;-94
2022/07/03 12:33:35;;;;;;;;;;;;;;;18.20;62.98;100643.06;6127497;23;1280;-94
2022/07/03 12:36:01;;;;;;;;;;;;;;;18.17;62.97;100645.22;6127377;23;1936;-95
2022/07/03 12:38:28;;;;;;;;;;;;;;;18.19;62.99;100641.44;6127548;23;1261;-93
2022/07/03 12:40:54;;;;;;;;;;;;;;;18.20;62.93;100648.50;6127794;23;1149;-94
2022/07/03 12:43:20;;;;;;;;;;;;;;;18.19;62.89;100644.97;6127033;23;1342;-94
2022/07/03 12:45:47;;;;;;;;;;;;;;;18.19;62.94;100638.72;6127459;23;1340;-95
2022/07/03 12:48:13;;;;;;;;;;;;;;;18.19;62.72;100636.00;6127680;23;1125;-95
2022/07/03 12:50:40;;;;;;;;;;;;;;;18.19;62.91;100636.00;6127379;23;1200;-94
2022/07/03 12:53:06;;;;;;;;;;;;;;;18.17;62.71;100630.78;6127325;23;1173;-95
2022/07/03 12:55:33;;;;;;;;;;;;;;;18.17;62.87;100626.16;6127174;23;1943;-95
2022/07/03 13:00:43;;;;;;;;;;;;;;;18.17;62.95;100620.69;6127486;23;1242;-94
2022/07/03 13:03:10;;;;;;;;;;;;;;;18.17;62.69;100612.53;6127194;23;1150;-94